Time;durP1;ratioP1;P1;durP2;ratioP2;P2;SDS_P1;SDS_P2;PMS_P1;PMS_P2;Temp;Humidity;BMP_temperature;BMP_pressure;BME280_temperature;BME280_humidity;BME280_pressure;Samples;Min_cycle;Max_cycle;Signal;HPM_P1;HPM_P2
2022/03/16 00:00:17;;;;;;;0.00;0.00;;;7.00;1.00;226.50;231333.00;;;;5045733;28;20196;-72
2022/03/16 00:02:48;;;;;;;0.10;0.10;;;6.90;1.00;226.50;231333.00;;;;5027300;28;20245;-72
2022/03/16 00:05:18;;;;;;;0.10;0.10;;;6.90;1.00;226.50;231333.00;;;;5020655;28;20606;-72
2022/03/16 00:07:47;;;;;;;0.10;0.10;;;6.90;1.00;226.50;231333.00;;;;5020490;28;20681;-71
2022/03/16 00:10:15;;;;;;;0.10;0.10;;;6.90;1.00;226.50;231333.00;;;;5020229;28;20187;-72
2022/03/16 00:12:44;;;;;;;0.10;0.10;;;6.90;1.00;226.50;231333.00;;;;5021498;28;20265;-72
2022/03/16 00:15:12;;;;;;;0.10;0.10;;;6.80;1.00;226.50;231333.00;;;;5020524;28;20207;-72
2022/03/16 00:17:41;;;;;;;0.10;0.10;;;6.80;1.00;226.50;231333.00;;;;5020738;28;20708;-72
2022/03/16 00:20:11;;;;;;;0.10;0.10;;;6.80;1.00;226.50;231333.00;;;;5019591;28;20191;-74
2022/03/16 00:22:40;;;;;;;0.10;0.10;;;6.80;1.00;226.50;231333.00;;;;5019009;28;20265;-73
2022/03/16 00:25:09;;;;;;;0.10;0.10;;;6.80;1.00;226.50;231333.00;;;;5019522;28;20187;-73
2022/03/16 00:27:37;;;;;;;0.10;0.10;;;6.80;1.00;226.50;231333.00;;;;5020695;28;20210;-73
2022/03/16 00:30:08;;;;;;;0.10;0.10;;;6.80;1.00;226.50;231333.00;;;;5020042;28;20191;-73
2022/03/16 00:32:36;;;;;;;0.10;0.10;;;6.80;1.00;226.50;231333.00;;;;5019036;28;20226;-73
2022/03/16 00:35:07;;;;;;;0.10;0.10;;;6.80;1.00;226.50;231333.00;;;;5020268;28;20191;-73
2022/03/16 00:37:35;;;;;;;0.00;0.00;;;6.80;1.00;226.50;231333.00;;;;5017629;28;20286;-74
2022/03/16 00:40:05;;;;;;;0.10;0.10;;;6.80;1.00;226.50;231333.00;;;;5020658;28;20549;-72
2022/03/16 00:42:33;;;;;;;0.10;0.10;;;6.90;1.00;226.50;231333.00;;;;5036611;23;20316;-70
2022/03/16 00:45:01;;;;;;;0.10;0.10;;;6.90;1.00;226.50;231333.00;;;;5046890;28;20212;-71
2022/03/16 00:47:29;;;;;;;0.10;0.10;;;6.90;1.00;226.50;231333.00;;;;5048392;28;20186;-70
2022/03/16 00:49:57;;;;;;;0.10;0.10;;;6.90;1.00;226.50;231333.00;;;;5047194;28;20203;-70
2022/03/16 00:52:27;;;;;;;0.10;0.10;;;6.90;1.00;226.50;231333.00;;;;5035908;28;20211;-70
2022/03/16 00:54:55;;;;;;;0.10;0.10;;;6.90;1.00;226.50;231333.00;;;;5026871;28;20588;-70
2022/03/16 00:57:23;;;;;;;0.10;0.10;;;6.90;1.00;226.50;231333.00;;;;5023288;28;20188;-70
2022/03/16 00:59:50;;;;;;;0.10;0.10;;;7.00;1.00;226.50;231333.00;;;;5004564;28;20219;-71
2022/03/16 01:02:19;;;;;;;0.10;0.10;;;7.00;1.00;226.50;231333.00;;;;5018890;28;20219;-70
2022/03/16 01:04:47;;;;;;;0.10;0.10;;;7.00;1.00;226.50;231333.00;;;;5002206;28;20204;-70
2022/03/16 01:07:15;;;;;;;0.05;0.05;;;7.00;1.00;226.50;231333.00;;;;5001883;28;20277;-70
2022/03/16 01:09:44;;;;;;;0.10;0.10;;;7.00;1.00;226.50;231333.00;;;;5020523;28;20572;-72
2022/03/16 01:12:12;;;;;;;0.10;0.10;;;7.10;1.00;226.50;231333.00;;;;5004538;28;20577;-70
2022/03/16 01:14:40;;;;;;;0.10;0.10;;;7.00;1.00;226.50;231333.00;;;;5020299;28;20192;-70
2022/03/16 01:17:08;;;;;;;0.10;0.10;;;7.00;1.00;226.50;231333.00;;;;5003513;28;20286;-70
2022/03/16 01:19:37;;;;;;;0.10;0.10;;;7.00;1.00;226.50;231333.00;;;;5021756;28;20619;-70
2022/03/16 01:22:06;;;;;;;0.10;0.10;;;7.00;1.00;226.50;231333.00;;;;5020259;28;20219;-70
2022/03/16 01:24:37;;;;;;;0.10;0.10;;;7.00;1.00;226.50;231333.00;;;;5004562;28;20727;-70
2022/03/16 01:27:06;;;;;;;0.10;0.10;;;7.00;1.00;226.50;231333.00;;;;5021615;28;20203;-71
2022/03/16 01:29:34;;;;;;;0.10;0.10;;;7.00;1.00;226.50;231333.00;;;;5000506;28;20204;-70
2022/03/16 01:32:02;;;;;;;0.10;0.10;;;7.00;1.00;226.50;231333.00;;;;5021259;28;20227;-70
2022/03/16 01:34:30;;;;;;;0.10;0.10;;;7.00;1.00;226.50;231333.00;;;;5003324;28;20195;-70
2022/03/16 01:37:00;;;;;;;0.10;0.10;;;7.00;1.00;226.50;231333.00;;;;5019907;28;20199;-71
2022/03/16 01:39:28;;;;;;;0.10;0.10;;;7.00;1.00;226.50;231333.00;;;;5019908;28;20223;-70
2022/03/16 01:41:56;;;;;;;0.10;0.10;;;7.00;1.00;226.50;231333.00;;;;5018811;28;20227;-70
2022/03/16 01:44:48;;;;;;;0.10;0.10;;;7.00;1.00;226.50;231333.00;;;;5018470;28;20184;-71
2022/03/16 01:47:19;;;;;;;0.10;0.10;;;6.90;1.00;226.50;231333.00;;;;5018328;28;20549;-71
2022/03/16 01:49:51;;;;;;;0.10;0.10;;;6.90;1.00;226.50;231333.00;;;;5002424;28;20250;-70
2022/03/16 01:52:21;;;;;;;0.10;0.10;;;6.80;1.00;226.50;231333.00;;;;5019821;28;20211;-70
2022/03/16 01:54:51;;;;;;;0.10;0.10;;;6.80;1.00;226.50;231333.00;;;;5019158;28;20290;-70
2022/03/16 01:57:20;;;;;;;0.10;0.10;;;6.80;1.00;226.50;231333.00;;;;5009464;28;20647;-70
2022/03/16 01:59:49;;;;;;;0.10;0.10;;;6.70;1.00;226.50;231333.00;;;;5000538;28;20584;-70
2022/03/16 02:02:18;;;;;;;0.10;0.10;;;6.70;1.00;226.50;231333.00;;;;5008444;28;20215;-70
2022/03/16 02:04:46;;;;;;;0.10;0.10;;;6.80;1.00;226.50;231333.00;;;;5002932;28;20232;-71
2022/03/16 02:07:16;;;;;;;0.10;0.10;;;6.70;1.00;226.50;231333.00;;;;5019269;28;20664;-71
2022/03/16 02:09:44;;;;;;;0.10;0.10;;;6.70;1.00;226.50;231333.00;;;;5019357;28;20192;-70
2022/03/16 02:12:14;;;;;;;0.08;0.08;;;6.70;1.00;226.50;231333.00;;;;5019922;28;20223;-70
2022/03/16 02:14:42;;;;;;;0.10;0.10;;;6.70;1.00;226.50;231333.00;;;;5020778;28;20649;-70
2022/03/16 02:17:11;;;;;;;0.10;0.10;;;6.60;1.00;226.50;231333.00;;;;5019599;28;20234;-72
2022/03/16 02:19:40;;;;;;;0.00;0.00;;;6.70;1.00;226.50;231333.00;;;;5020080;28;20254;-72
2022/03/16 02:22:13;;;;;;;0.10;0.10;;;6.70;1.00;226.50;231333.00;;;;5020148;28;20212;-71
2022/03/16 02:24:43;;;;;;;0.10;0.10;;;6.70;1.00;226.50;231333.00;;;;5020199;28;20203;-70
2022/03/16 02:27:11;;;;;;;0.10;0.10;;;6.60;1.00;226.50;231333.00;;;;5019897;28;20233;-70
2022/03/16 02:29:38;;;;;;;0.10;0.10;;;6.60;1.00;226.50;231333.00;;;;5021204;28;20199;-70
2022/03/16 02:32:07;;;;;;;0.10;0.10;;;6.50;1.00;226.50;231333.00;;;;5018690;28;20745;-72
2022/03/16 02:34:35;;;;;;;0.10;0.10;;;6.50;1.00;226.50;231333.00;;;;5020100;28;20246;-72
2022/03/16 02:37:04;;;;;;;0.10;0.10;;;6.50;1.00;226.50;231333.00;;;;5019062;28;20198;-71
2022/03/16 02:39:32;;;;;;;0.10;0.10;;;6.50;1.00;226.50;231333.00;;;;5018566;28;20219;-71
2022/03/16 02:42:02;;;;;;;0.00;0.00;;;6.60;1.00;226.50;231333.00;;;;5018845;28;20224;-71
2022/03/16 02:44:30;;;;;;;0.10;0.10;;;6.60;1.00;226.50;231333.00;;;;5019414;28;20238;-71
2022/03/16 02:46:58;;;;;;;0.10;0.10;;;6.70;1.00;226.50;231333.00;;;;5018728;28;20187;-71
2022/03/16 02:49:28;;;;;;;0.10;0.10;;;6.70;1.00;226.50;231333.00;;;;5019343;28;20281;-71
2022/03/16 02:51:57;;;;;;;0.10;0.10;;;6.70;1.00;226.50;231333.00;;;;5019555;28;20622;-72
2022/03/16 02:54:25;;;;;;;0.20;0.20;;;6.70;1.00;226.50;231333.00;;;;5018416;28;20640;-71
2022/03/16 02:56:53;;;;;;;0.10;0.10;;;6.70;1.00;226.50;231333.00;;;;5018147;28;20583;-71
2022/03/16 02:59:23;;;;;;;0.10;0.10;;;6.80;1.00;226.50;231333.00;;;;5018597;28;20207;-71
2022/03/16 03:01:51;;;;;;;0.10;0.10;;;6.70;1.00;226.50;231333.00;;;;5021722;28;20223;-71
2022/03/16 03:04:19;;;;;;;0.10;0.10;;;6.70;1.00;226.50;231333.00;;;;5021760;28;20284;-71
2022/03/16 03:06:47;;;;;;;0.10;0.10;;;6.80;1.00;226.50;231333.00;;;;5021855;28;20179;-71
2022/03/16 03:09:15;;;;;;;0.10;0.10;;;6.80;1.00;226.50;231333.00;;;;5020690;28;20191;-71
2022/03/16 03:11:43;;;;;;;0.10;0.10;;;6.90;1.00;226.50;231333.00;;;;5021999;28;20269;-71
2022/03/16 03:14:11;;;;;;;0.10;0.10;;;6.80;1.00;226.50;231333.00;;;;5021977;28;20672;-70
2022/03/16 03:16:40;;;;;;;0.10;0.10;;;6.80;1.00;226.50;231333.00;;;;5022411;28;20249;-70
2022/03/16 03:19:08;;;;;;;0.10;0.10;;;6.80;1.00;226.50;231333.00;;;;5022482;28;20198;-71
2022/03/16 03:21:36;;;;;;;0.10;0.10;;;6.80;1.00;226.50;231333.00;;;;5021931;28;20228;-70
2022/03/16 03:24:05;;;;;;;0.10;0.10;;;6.80;1.00;226.50;231333.00;;;;5022739;28;20611;-71
2022/03/16 03:26:35;;;;;;;0.10;0.10;;;6.70;1.00;226.50;231333.00;;;;5021634;28;20226;-72
2022/03/16 03:29:03;;;;;;;0.10;0.10;;;6.70;1.00;226.50;231333.00;;;;5022165;28;20226;-70
2022/03/16 03:31:32;;;;;;;0.10;0.10;;;6.70;1.00;226.50;231333.00;;;;5022654;28;20223;-70
2022/03/16 03:34:02;;;;;;;0.10;0.10;;;6.70;1.00;226.50;231333.00;;;;5022093;28;20199;-70
2022/03/16 03:36:30;;;;;;;0.10;0.10;;;6.70;1.00;226.50;231333.00;;;;5022136;28;20192;-70
2022/03/16 03:38:58;;;;;;;0.10;0.10;;;6.60;1.00;226.50;231333.00;;;;5022389;28;20183;-70
2022/03/16 03:41:26;;;;;;;0.10;0.10;;;6.60;1.00;226.50;231333.00;;;;5021027;28;20215;-70
2022/03/16 03:43:55;;;;;;;0.10;0.10;;;6.60;1.00;226.50;231333.00;;;;5021848;28;20669;-70
2022/03/16 03:46:23;;;;;;;0.10;0.10;;;6.70;1.00;226.50;231333.00;;;;5022290;28;20187;-70
2022/03/16 03:48:51;;;;;;;0.10;0.10;;;6.60;1.00;226.50;231333.00;;;;5022719;28;20714;-71
2022/03/16 03:51:20;;;;;;;0.10;0.10;;;6.60;1.00;226.50;231333.00;;;;5019819;28;20230;-71
2022/03/16 03:53:48;;;;;;;0.10;0.10;;;6.60;1.00;226.50;231333.00;;;;5021959;28;20592;-70
2022/03/16 03:56:16;;;;;;;0.10;0.10;;;6.60;1.00;226.50;231333.00;;;;5021321;28;20281;-70
2022/03/16 03:58:45;;;;;;;0.10;0.10;;;6.60;1.00;226.50;231333.00;;;;5021052;28;20199;-70
2022/03/16 04:01:15;;;;;;;0.10;0.10;;;6.60;1.00;226.50;231333.00;;;;5020053;28;20215;-71
2022/03/16 04:03:44;;;;;;;0.10;0.10;;;6.60;1.00;226.50;231333.00;;;;5021566;28;20191;-70
2022/03/16 04:06:12;;;;;;;0.10;0.10;;;6.70;1.00;226.50;231333.00;;;;5021411;28;20195;-70
2022/03/16 04:08:42;;;;;;;0.10;0.10;;;6.60;1.00;226.50;231333.00;;;;5004678;28;20191;-71
2022/03/16 04:11:11;;;;;;;0.10;0.10;;;6.70;1.00;226.50;231333.00;;;;5021470;28;20199;-70
2022/03/16 04:13:39;;;;;;;0.10;0.10;;;6.60;1.00;226.50;231333.00;;;;5021189;28;20199;-70
2022/03/16 04:16:07;;;;;;;0.10;0.10;;;6.60;1.00;226.50;231333.00;;;;5020992;28;20700;-70
2022/03/16 04:18:35;;;;;;;0.00;0.00;;;6.60;1.00;226.50;231333.00;;;;5021112;28;20279;-70
2022/03/16 04:21:03;;;;;;;0.00;0.00;;;6.60;1.00;226.50;231333.00;;;;5021123;28;20220;-70
2022/03/16 04:23:31;;;;;;;0.10;0.10;;;6.60;1.00;226.50;231333.00;;;;5021383;28;20227;-70
2022/03/16 04:26:00;;;;;;;0.10;0.10;;;6.60;1.00;226.50;231333.00;;;;5021356;28;20194;-70
2022/03/16 04:28:28;;;;;;;0.10;0.10;;;6.60;1.00;226.50;231333.00;;;;5021506;28;20266;-70
2022/03/16 04:30:56;;;;;;;0.10;0.10;;;6.60;1.00;226.50;231333.00;;;;5020712;28;20671;-70
2022/03/16 04:33:24;;;;;;;0.10;0.10;;;6.60;1.00;226.50;231333.00;;;;5021460;28;20219;-70
2022/03/16 04:35:52;;;;;;;0.10;0.10;;;6.70;1.00;226.50;231333.00;;;;5019348;28;20203;-70
2022/03/16 04:38:20;;;;;;;0.10;0.10;;;6.60;1.00;226.50;231333.00;;;;5021686;28;20195;-70
2022/03/16 04:40:49;;;;;;;0.10;0.10;;;6.60;1.00;226.50;231333.00;;;;5021474;28;20215;-70
2022/03/16 04:43:18;;;;;;;0.10;0.10;;;6.60;1.00;226.50;231333.00;;;;5021274;28;20272;-70
2022/03/16 04:45:46;;;;;;;0.10;0.10;;;6.60;1.00;226.50;231333.00;;;;5023067;28;20199;-70
2022/03/16 04:48:14;;;;;;;0.10;0.10;;;6.60;1.00;226.50;231333.00;;;;5022043;28;20206;-71
2022/03/16 04:50:42;;;;;;;0.10;0.10;;;6.60;1.00;226.50;231333.00;;;;5022445;28;20215;-70
2022/03/16 04:53:10;;;;;;;0.10;0.10;;;6.60;1.00;226.50;231333.00;;;;5020918;28;20206;-70
2022/03/16 04:55:38;;;;;;;0.10;0.10;;;6.50;1.00;226.50;231333.00;;;;5022324;28;20200;-70
2022/03/16 04:58:08;;;;;;;0.10;0.10;;;6.60;1.00;226.50;231333.00;;;;5023516;28;20230;-69
2022/03/16 05:00:38;;;;;;;0.10;0.10;;;6.60;1.00;226.50;231333.00;;;;5021156;28;20265;-69
2022/03/16 05:03:06;;;;;;;0.03;0.03;;;6.60;1.00;226.50;231333.00;;;;5004138;28;20254;-70
2022/03/16 05:05:35;;;;;;;0.10;0.10;;;6.60;1.00;226.50;231333.00;;;;5020821;28;20274;-70
2022/03/16 05:08:03;;;;;;;0.10;0.10;;;6.60;1.00;226.50;231333.00;;;;5021197;28;20238;-70
2022/03/16 05:10:32;;;;;;;0.10;0.10;;;6.60;1.00;226.50;231333.00;;;;5017801;28;20256;-71
2022/03/16 05:13:00;;;;;;;0.10;0.10;;;6.60;1.00;226.50;231333.00;;;;5017052;28;20683;-70
2022/03/16 05:15:28;;;;;;;0.10;0.10;;;6.60;1.00;226.50;231333.00;;;;5018341;28;20772;-70
2022/03/16 05:17:57;;;;;;;0.10;0.10;;;6.60;1.00;226.50;231333.00;;;;5020236;28;20206;-70
2022/03/16 05:20:26;;;;;;;0.10;0.10;;;6.60;1.00;226.50;231333.00;;;;5018634;28;20215;-70
2022/03/16 05:22:54;;;;;;;0.10;0.10;;;6.60;1.00;226.50;231333.00;;;;5019777;28;20223;-72
2022/03/16 05:25:25;;;;;;;0.10;0.10;;;6.60;1.00;226.50;231333.00;;;;5019236;28;20195;-72
2022/03/16 05:27:54;;;;;;;0.10;0.10;;;6.60;1.00;226.50;231333.00;;;;5019990;28;20223;-71
2022/03/16 05:30:26;;;;;;;0.10;0.10;;;6.60;1.00;226.50;231333.00;;;;5019681;28;20672;-71
2022/03/16 05:32:59;;;;;;;0.10;0.10;;;6.60;1.00;226.50;231333.00;;;;5019102;28;20222;-71
2022/03/16 05:35:29;;;;;;;0.00;0.00;;;6.60;1.00;226.50;231333.00;;;;5018758;28;20656;-71
2022/03/16 05:37:57;;;;;;;0.10;0.10;;;6.60;1.00;226.50;231333.00;;;;5020048;28;20215;-71
2022/03/16 05:40:25;;;;;;;0.10;0.10;;;6.60;1.00;226.50;161614.00;;;;5020045;28;20612;-70
2022/03/16 05:42:53;;;;;;;0.10;0.10;;;6.70;1.00;226.50;231333.00;;;;5018931;28;20719;-71
2022/03/16 05:45:25;;;;;;;0.10;0.10;;;6.60;1.00;226.50;231333.00;;;;5020457;28;20211;-71
2022/03/16 05:47:57;;;;;;;0.10;0.10;;;6.60;1.00;226.50;231333.00;;;;5019716;28;20253;-71
2022/03/16 05:50:28;;;;;;;0.10;0.10;;;6.60;1.00;226.50;231333.00;;;;5019594;28;20224;-71
2022/03/16 05:52:57;;;;;;;0.10;0.10;;;6.50;1.00;226.50;231333.00;;;;5019798;28;20258;-71
2022/03/16 05:55:25;;;;;;;0.10;0.10;;;6.50;1.00;226.50;231333.00;;;;5020313;28;20775;-71
2022/03/16 05:57:54;;;;;;;0.10;0.10;;;6.50;1.00;226.50;231333.00;;;;5018914;28;20210;-71
2022/03/16 06:00:23;;;;;;;0.10;0.10;;;6.50;1.00;226.50;231333.00;;;;5018097;28;20203;-71
2022/03/16 06:02:51;;;;;;;0.10;0.10;;;6.50;1.00;226.50;231333.00;;;;5019768;28;20265;-73
2022/03/16 06:05:26;;;;;;;0.10;0.10;;;6.50;1.00;226.50;231333.00;;;;5020410;28;20211;-72
2022/03/16 06:07:55;;;;;;;0.10;0.10;;;6.50;1.00;226.50;231333.00;;;;5021444;28;20551;-71
2022/03/16 06:10:22;;;;;;;0.10;0.10;;;6.50;1.00;226.50;231333.00;;;;5019877;28;20191;-72
2022/03/16 06:12:59;;;;;;;0.10;0.10;;;6.50;1.00;226.50;231333.00;;;;5018809;28;20218;-72
2022/03/16 06:15:37;;;;;;;0.10;0.10;;;6.40;1.00;226.50;231333.00;;;;5020512;28;20198;-72
2022/03/16 06:18:05;;;;;;;0.10;0.10;;;6.50;1.00;226.50;231333.00;;;;5009265;28;20199;-72
2022/03/16 06:20:36;;;;;;;0.00;0.00;;;6.50;1.00;5.60;98150.00;;;;5000849;28;20226;-72
2022/03/16 06:23:05;;;;;;;0.10;0.10;;;6.60;1.00;5.50;98114.00;;;;5019850;28;20242;-72
2022/03/16 06:25:39;;;;;;;0.10;0.10;;;6.60;1.00;5.50;98086.00;;;;5019366;28;20194;-72
2022/03/16 06:28:07;;;;;;;0.10;0.10;;;6.60;1.00;5.50;98102.00;;;;5018431;28;20246;-72
2022/03/16 06:30:35;;;;;;;0.10;0.10;;;6.60;1.00;5.50;98122.00;;;;5018303;28;20200;-72
2022/03/16 06:33:04;;;;;;;0.10;0.10;;;6.70;1.00;5.60;98126.00;;;;5002183;28;20215;-72
2022/03/16 06:35:32;;;;;;;0.10;0.10;;;6.70;1.00;5.60;98115.00;;;;5021670;28;20656;-72
2022/03/16 06:38:01;;;;;;;0.10;0.10;;;6.70;1.00;5.60;98135.00;;;;5023479;28;20218;-72
2022/03/16 06:40:30;;;;;;;0.10;0.10;;;6.70;1.00;5.60;98133.00;;;;5005823;28;20196;-72
2022/03/16 06:43:00;;;;;;;0.10;0.10;;;6.70;1.00;5.60;98085.00;;;;5022471;28;20245;-72
2022/03/16 06:45:30;;;;;;;0.10;0.10;;;6.70;1.00;5.70;98085.00;;;;5022632;28;20207;-71
2022/03/16 06:48:00;;;;;;;0.10;0.10;;;6.80;1.00;5.70;98081.00;;;;5023127;28;20712;-71
2022/03/16 06:50:29;;;;;;;0.10;0.10;;;6.80;1.00;5.70;98066.00;;;;5022721;28;20600;-71
2022/03/16 06:52:59;;;;;;;0.10;0.10;;;6.80;1.00;5.70;98065.00;;;;5022603;28;20219;-72
2022/03/16 06:55:28;;;;;;;0.03;0.03;;;6.80;1.00;5.70;98037.00;;;;5021285;28;20194;-72
2022/03/16 06:57:57;;;;;;;0.10;0.10;;;6.80;1.00;5.70;98069.00;;;;5022859;28;20262;-71
2022/03/16 07:00:25;;;;;;;0.10;0.10;;;6.80;1.00;5.60;98089.00;;;;5022607;28;20199;-72
2022/03/16 07:02:56;;;;;;;0.10;0.10;;;6.80;1.00;5.60;98093.00;;;;5022348;28;20573;-72
2022/03/16 07:05:28;;;;;;;0.10;0.10;;;6.80;1.00;5.70;98075.00;;;;5022137;28;20555;-72
2022/03/16 07:07:57;;;;;;;0.10;0.10;;;6.80;1.00;5.70;98122.00;;;;5022669;28;20330;-73
2022/03/16 07:10:25;;;;;;;0.10;0.10;;;6.80;1.00;5.70;98125.00;;;;5022081;28;20207;-72
2022/03/16 07:12:55;;;;;;;0.10;0.10;;;6.80;1.00;5.70;98129.00;;;;5022418;28;20665;-72
2022/03/16 07:15:24;;;;;;;0.10;0.10;;;6.80;1.00;5.50;98142.00;;;;5022955;28;20191;-71
2022/03/16 07:17:53;;;;;;;0.10;0.10;;;6.80;1.00;5.80;98142.00;;;;5021723;28;20210;-73
2022/03/16 07:20:21;;;;;;;0.10;0.10;;;6.90;1.00;5.70;98138.00;;;;5021769;28;20278;-71
2022/03/16 07:23:03;;;;;;;0.10;0.10;;;6.90;1.00;5.70;98127.00;;;;5021340;28;20703;-71
2022/03/16 07:25:35;;;;;;;0.10;0.10;;;6.80;1.00;5.60;98131.00;;;;5022807;28;20195;-73
2022/03/16 07:28:06;;;;;;;0.10;0.10;;;6.80;1.00;5.60;98138.00;;;;5022359;28;20199;-70
2022/03/16 07:30:35;;;;;;;0.10;0.10;;;6.80;1.00;5.50;98151.00;;;;5022317;28;20953;-70
2022/03/16 07:33:04;;;;;;;0.10;0.10;;;6.70;1.00;5.50;98141.00;;;;5020528;28;20219;-70
2022/03/16 07:35:32;;;;;;;0.10;0.10;;;6.60;1.00;5.50;98157.00;;;;5022414;28;20996;-71
2022/03/16 07:38:02;;;;;;;0.00;0.00;;;6.70;1.00;5.60;98153.00;;;;5021093;28;20275;-71
2022/03/16 07:40:33;;;;;;;0.10;0.10;;;6.80;1.00;5.60;98166.00;;;;5004085;28;20727;-71
2022/03/16 07:43:01;;;;;;;0.10;0.10;;;6.80;1.00;5.70;98163.00;;;;5020282;28;20246;-71
2022/03/16 07:45:35;;;;;;;0.10;0.10;;;6.90;1.00;5.80;98169.00;;;;5003642;28;20203;-72
2022/03/16 07:48:06;;;;;;;0.10;0.10;;;6.90;1.00;5.80;98162.00;;;;5020185;28;20221;-72
2022/03/16 07:50:35;;;;;;;0.10;0.10;;;7.00;1.00;5.90;98164.00;;;;5021444;28;20692;-73
2022/03/16 07:53:04;;;;;;;0.10;0.10;;;7.00;1.00;6.00;98169.00;;;;5020673;28;20258;-72
2022/03/16 07:55:32;;;;;;;0.10;0.10;;;7.10;1.00;6.00;98179.00;;;;5020552;28;20207;-72
2022/03/16 07:58:01;;;;;;;0.10;0.10;;;7.10;1.00;6.10;98184.00;;;;5021988;28;20202;-72
2022/03/16 08:00:31;;;;;;;0.10;0.10;;;7.20;1.00;6.10;98176.00;;;;5020761;28;20207;-73
2022/03/16 08:03:01;;;;;;;0.10;0.10;;;7.20;1.00;6.20;98176.00;;;;5021178;28;20242;-71
2022/03/16 08:05:31;;;;;;;0.10;0.10;;;7.30;1.00;6.20;98207.00;;;;5022638;28;20206;-72
2022/03/16 08:08:00;;;;;;;0.10;0.10;;;7.30;1.00;6.20;98205.00;;;;5023141;28;20207;-72
2022/03/16 08:10:29;;;;;;;0.10;0.10;;;7.30;1.00;6.30;98201.00;;;;5026380;28;20995;-72
2022/03/16 08:12:57;;;;;;;0.10;0.10;;;7.40;1.00;6.30;98170.00;;;;5027028;28;20230;-72
2022/03/16 08:15:25;;;;;;;0.10;0.10;;;7.40;1.00;6.40;98213.00;;;;5026851;28;20265;-71
2022/03/16 08:17:55;;;;;;;0.10;0.10;;;7.50;1.00;6.40;98207.00;;;;5026229;28;20192;-71
2022/03/16 08:20:23;;;;;;;0.10;0.10;;;7.50;1.00;6.50;98218.00;;;;5024971;28;20253;-72
2022/03/16 08:22:56;;;;;;;0.10;0.10;;;7.60;1.00;6.50;98207.00;;;;5023774;28;20223;-71
2022/03/16 08:25:44;;;;;;;0.10;0.10;;;7.60;1.00;6.60;98207.00;;;;5027327;28;20257;-71
2022/03/16 08:28:12;;;;;;;0.10;0.10;;;7.60;1.00;6.50;98193.00;;;;5006378;28;20208;-71
2022/03/16 08:30:40;;;;;;;0.10;0.10;;;7.60;1.00;6.20;98186.00;;;;5020669;28;20200;-71
2022/03/16 08:33:18;;;;;;;0.10;0.10;;;7.50;1.00;6.30;98163.00;;;;5020831;28;20227;-73
2022/03/16 08:35:46;;;;;;;0.10;0.10;;;7.50;1.00;6.30;98208.00;;;;5019482;28;20195;-72
2022/03/16 08:38:17;;;;;;;0.10;0.10;;;7.50;1.00;6.60;98187.00;;;;5018388;28;20991;-72
2022/03/16 08:40:46;;;;;;;0.10;0.10;;;7.60;1.00;6.60;98181.00;;;;5020989;28;20199;-72
2022/03/16 08:43:14;;;;;;;0.10;0.10;;;7.70;1.00;6.60;98188.00;;;;5019965;28;20226;-72
2022/03/16 08:45:42;;;;;;;0.10;0.10;;;7.70;1.00;6.70;98166.00;;;;5003234;28;20211;-72
2022/03/16 08:48:10;;;;;;;0.10;0.10;;;7.80;1.00;6.80;98171.00;;;;5018537;28;20245;-72
2022/03/16 08:50:40;;;;;;;0.10;0.10;;;7.90;1.00;6.90;98183.00;;;;5020375;28;20199;-71
2022/03/16 08:53:08;;;;;;;0.10;0.10;;;7.90;1.00;6.90;98209.00;;;;5018314;28;20245;-72
2022/03/16 08:55:37;;;;;;;0.10;0.10;;;7.80;1.00;6.70;98205.00;;;;5019633;28;20199;-72
2022/03/16 08:58:05;;;;;;;0.10;0.10;;;7.70;1.00;6.60;98198.00;;;;5020752;28;20203;-72
2022/03/16 09:00:33;;;;;;;0.10;0.10;;;7.70;1.00;6.60;98188.00;;;;5019540;28;20196;-72
2022/03/16 09:03:02;;;;;;;0.10;0.10;;;7.60;1.00;6.60;98193.00;;;;5019771;28;20223;-72
2022/03/16 09:05:41;;;;;;;0.10;0.10;;;7.70;1.00;6.40;98210.00;;;;5021431;28;20238;-73
2022/03/16 09:08:10;;;;;;;0.10;0.10;;;7.60;1.00;6.40;98190.00;;;;5018466;28;20229;-72
2022/03/16 09:10:40;;;;;;;0.10;0.10;;;7.60;1.00;6.30;98231.00;;;;5018397;28;20670;-73
2022/03/16 09:13:08;;;;;;;0.10;0.10;;;7.50;1.00;6.40;98203.00;;;;5023564;28;20245;-74
2022/03/16 09:15:38;;;;;;;0.10;0.10;;;7.60;1.00;6.50;98204.00;;;;5025386;28;20198;-73
2022/03/16 09:18:09;;;;;;;0.10;0.10;;;7.60;1.00;6.50;98215.00;;;;5020985;28;20245;-73
2022/03/16 09:20:37;;;;;;;0.10;0.10;;;7.70;1.00;6.70;98210.00;;;;5021508;28;20203;-71
2022/03/16 09:23:08;;;;;;;0.10;0.10;;;7.80;1.00;6.60;98219.00;;;;5018130;28;20231;-71
2022/03/16 09:25:36;;;;;;;0.10;0.10;;;7.70;1.00;6.70;98219.00;;;;5019409;28;20195;-72
2022/03/16 09:28:05;;;;;;;0.15;0.15;;;7.80;1.00;6.80;98225.00;;;;5023270;28;20733;-72
2022/03/16 09:30:33;;;;;;;0.10;0.10;;;7.90;1.00;6.80;98232.00;;;;5020436;28;20504;-72
2022/03/16 09:33:01;;;;;;;0.10;0.10;;;7.80;1.00;6.70;98205.00;;;;5021611;28;20235;-72
2022/03/16 09:35:30;;;;;;;0.10;0.10;;;7.80;1.00;6.80;98204.00;;;;5018133;28;20184;-72
2022/03/16 09:37:59;;;;;;;0.10;0.10;;;7.90;1.00;6.90;98156.00;;;;5019161;28;20199;-72
2022/03/16 09:40:28;;;;;;;0.10;0.10;;;8.00;1.00;7.00;98209.00;;;;5022524;28;20191;-72
2022/03/16 09:42:57;;;;;;;0.10;0.10;;;8.00;1.00;7.00;98209.00;;;;5018132;28;20242;-72
2022/03/16 09:45:30;;;;;;;0.10;0.10;;;8.00;1.00;6.90;98212.00;;;;5018700;28;20270;-72
2022/03/16 09:48:00;;;;;;;0.10;0.10;;;8.00;1.00;7.00;98215.00;;;;5018331;28;20199;-72
2022/03/16 09:50:28;;;;;;;0.10;0.10;;;8.10;1.00;6.90;98211.00;;;;5007672;28;20234;-72
2022/03/16 09:52:57;;;;;;;0.10;0.10;;;8.00;1.00;7.00;98215.00;;;;5026423;28;20251;-73
2022/03/16 09:55:25;;;;;;;0.10;0.10;;;8.00;1.00;7.00;98212.00;;;;5009295;28;20298;-73
2022/03/16 09:57:54;;;;;;;0.10;0.10;;;8.00;1.00;7.00;98203.00;;;;5026200;28;20245;-72
2022/03/16 10:00:22;;;;;;;0.10;0.10;;;8.00;1.00;6.90;98213.00;;;;5022932;28;20195;-72
2022/03/16 10:02:52;;;;;;;0.05;0.05;;;8.00;1.00;7.10;98213.00;;;;5021635;28;20441;-72
2022/03/16 10:05:21;;;;;;;0.10;0.10;;;8.10;1.00;7.20;98211.00;;;;5018763;28;20200;-72
2022/03/16 10:08:30;;;;;;;0.10;0.10;;;8.20;1.00;7.40;98206.00;;;;5008042;28;20645;-72
2022/03/16 10:14:05;;;;;;;0.10;0.10;;;8.40;1.00;7.70;98208.00;;;;5005694;28;20217;-72
2022/03/16 10:17:43;;;;;;;0.10;0.10;;;8.60;1.00;7.70;98204.00;;;;5023274;28;20191;-72
2022/03/16 10:19:24;;;;;;;0.10;0.10;;;8.60;1.00;7.80;98189.00;;;;5022080;28;20567;-73
2022/03/16 10:21:58;;;;;;;0.10;0.10;;;8.70;1.00;226.50;162915.00;;;;5023127;28;20225;-72
2022/03/16 10:24:29;;;;;;;0.10;0.10;;;8.80;1.00;226.50;231333.00;;;;5003529;28;20782;-72
2022/03/16 10:27:00;;;;;;;0.10;0.10;;;8.90;99.90;226.50;231333.00;;;;5021425;28;20187;-72
2022/03/16 10:29:31;;;;;;;0.10;0.10;;;9.00;99.90;226.50;231333.00;;;;5021158;28;20269;-72
2022/03/16 10:32:05;;;;;;;0.10;0.10;;;9.10;99.90;226.50;231333.00;;;;5023351;28;20216;-73
2022/03/16 10:34:33;;;;;;;0.10;0.10;;;9.20;99.90;226.50;231333.00;;;;5024774;28;20208;-72
2022/03/16 10:37:02;;;;;;;0.10;0.10;;;9.40;99.90;8.90;98195.00;;;;5022354;28;20664;-72
2022/03/16 10:39:35;;;;;;;0.10;0.10;;;9.60;99.90;9.00;98196.00;;;;5023799;28;20231;-72
2022/03/16 10:48:00;;;;;;;0.10;0.10;;;9.70;1.00;8.90;98200.00;;;;5023333;28;20218;-73
2022/03/16 10:50:28;;;;;;;0.10;0.10;;;9.60;1.00;8.90;98195.00;;;;5023484;28;20241;-72
2022/03/16 10:52:57;;;;;;;0.10;0.10;;;9.80;1.00;9.10;98188.00;;;;5023117;28;20622;-72
2022/03/16 10:55:27;;;;;;;0.10;0.10;;;10.00;1.00;9.30;98179.00;;;;5009278;28;20208;-72
2022/03/16 10:57:55;;;;;;;0.10;0.10;;;10.10;1.00;9.40;98162.00;;;;5025056;28;20195;-72
2022/03/16 11:00:27;;;;;;;0.10;0.10;;;10.20;1.00;9.50;98176.00;;;;5023894;28;20187;-72
2022/03/16 11:03:00;;;;;;;0.10;0.10;;;10.40;1.00;9.80;98185.00;;;;5026598;28;20734;-72
2022/03/16 11:05:28;;;;;;;0.10;0.10;;;10.60;1.00;9.90;98158.00;;;;5014852;28;20295;-72
2022/03/16 11:07:59;;;;;;;0.10;0.10;;;10.70;99.90;10.10;98181.00;;;;5026301;28;20242;-72
2022/03/16 11:10:27;;;;;;;0.10;0.10;;;10.90;99.90;10.20;98175.00;;;;5020965;28;20195;-73
2022/03/16 11:15:46;;;;;;;0.10;0.10;;;11.20;1.00;10.90;98166.00;;;;5019121;28;20625;-72
2022/03/16 11:18:14;;;;;;;0.10;0.10;;;11.50;1.00;11.10;98176.00;;;;5019488;28;20202;-72
2022/03/16 11:20:43;;;;;;;0.10;0.10;;;11.70;1.00;11.10;98164.00;;;;5020309;28;20282;-70
2022/03/16 11:26:21;;;;;;;0.10;0.10;;;11.70;99.90;10.90;98153.00;;;;5021038;28;20191;-70